Terminal Aerodrome Forecast
Issued by NWS Burlington, VT

Home | Current Version | Previous Version | Text Only | Print | Product List | Glossary On
Versions: 1 2 3 4 5 6 7 8 9 10 11 12 13 14 15
289
FTUS41 KBTV 101125
TAFBTV
TAF
KBTV 101125Z 1012/1112 32010KT P6SM BKN045
     FM101800 31005KT P6SM VCSH BKN050
     FM102200 00000KT P6SM BKN060
     FM110400 02004KT P6SM SCT090=

USA.gov is the U.S. government's official web portal to all federal, state and local government web resources and services.